Time;durP1;ratioP1;P1;durP2;ratioP2;P2;SDS_P1;SDS_P2;PMS_P1;PMS_P2;Temp;Humidity;BMP_temperature;BMP_pressure;BME280_temperature;BME280_humidity;BME280_pressure;Samples;Min_cycle;Max_cycle;Signal;HPM_P1;HPM_P2
2021/12/08 00:00:30;;;;;;;5.47;2.33;;;1.60;99.90;;;;;;5090063;28;20199;-66
2021/12/08 00:02:57;;;;;;;4.57;2.50;;;1.60;99.90;;;;;;5089167;28;20612;-66
2021/12/08 00:05:24;;;;;;;3.72;2.40;;;1.60;99.90;;;;;;5090361;28;20666;-65
2021/12/08 00:07:51;;;;;;;5.63;2.30;;;1.60;99.90;;;;;;5090184;28;20207;-67
2021/12/08 00:10:49;;;;;;;2.63;2.42;;;1.60;99.90;;;;;;5092426;28;20215;-66
2021/12/08 00:13:09;;;;;;;3.70;2.35;;;1.60;99.90;;;;;;5093419;28;20228;-65
2021/12/08 00:15:39;;;;;;;2.72;1.98;;;1.70;99.90;;;;;;5093472;28;20611;-66
2021/12/08 00:18:10;;;;;;;2.75;2.50;;;1.60;99.90;;;;;;5093952;28;20578;-65
2021/12/08 00:20:38;;;;;;;2.25;2.05;;;1.70;99.90;;;;;;5093299;28;20206;-66
2021/12/08 00:23:09;;;;;;;3.35;2.00;;;1.70;99.90;;;;;;5093307;28;20231;-66
2021/12/08 00:25:37;;;;;;;2.80;2.35;;;1.70;99.90;;;;;;5093153;28;20199;-66
2021/12/08 00:28:05;;;;;;;3.15;1.90;;;1.70;99.90;;;;;;5093728;28;20584;-64
2021/12/08 00:30:35;;;;;;;3.65;2.55;;;1.70;99.90;;;;;;5093347;28;20203;-65
2021/12/08 00:33:02;;;;;;;3.65;2.15;;;1.70;99.90;;;;;;5092860;28;20613;-66
2021/12/08 00:35:29;;;;;;;3.60;2.05;;;1.70;99.90;;;;;;5093181;28;20215;-66
2021/12/08 00:37:57;;;;;;;3.80;2.35;;;1.70;99.90;;;;;;5093062;28;20222;-65
2021/12/08 00:40:24;;;;;;;4.25;2.00;;;1.80;99.90;;;;;;5093277;28;20199;-66
2021/12/08 00:42:52;;;;;;;5.90;2.67;;;1.80;99.90;;;;;;5092438;28;20211;-64
2021/12/08 00:45:21;;;;;;;2.45;2.00;;;1.80;99.90;;;;;;5093261;28;20203;-66
2021/12/08 00:47:50;;;;;;;2.83;2.00;;;1.80;99.90;;;;;;5092597;28;20211;-66
2021/12/08 00:50:19;;;;;;;5.30;2.35;;;1.80;99.90;;;;;;5093283;28;20207;-66
2021/12/08 00:52:46;;;;;;;3.25;2.50;;;1.70;99.90;;;;;;5092060;28;20208;-66
2021/12/08 00:55:15;;;;;;;4.43;2.85;;;1.70;99.90;;;;;;5088085;28;20224;-66
2021/12/08 00:57:42;;;;;;;2.15;1.95;;;1.70;99.90;;;;;;5092481;28;20361;-66
2021/12/08 01:00:14;;;;;;;3.97;2.20;;;1.70;99.90;;;;;;5092862;28;20230;-66
2021/12/08 01:02:41;;;;;;;4.57;2.60;;;1.60;99.90;;;;;;5092174;28;20200;-66
2021/12/08 01:05:11;;;;;;;2.13;1.92;;;1.60;99.90;;;;;;5092621;28;20721;-65
2021/12/08 01:07:38;;;;;;;4.60;1.80;;;1.60;99.90;;;;;;5092543;28;20203;-65
2021/12/08 01:10:08;;;;;;;3.20;2.20;;;1.50;99.90;;;;;;5092981;28;20207;-65
2021/12/08 01:12:35;;;;;;;2.58;1.88;;;1.40;99.90;;;;;;5092097;28;20208;-64
2021/12/08 01:15:02;;;;;;;2.40;2.20;;;1.40;99.90;;;;;;5092630;28;20230;-65
2021/12/08 01:17:29;;;;;;;2.33;2.13;;;1.30;99.90;;;;;;5092351;28;20222;-65
2021/12/08 01:19:55;;;;;;;3.40;2.13;;;1.30;99.90;;;;;;5092512;28;20204;-66
2021/12/08 01:22:23;;;;;;;3.90;2.70;;;1.20;99.90;;;;;;5090796;28;20195;-66
2021/12/08 01:24:50;;;;;;;5.22;2.20;;;1.30;99.90;;;;;;5092137;28;20223;-65
2021/12/08 01:27:17;;;;;;;3.50;2.15;;;1.30;99.90;;;;;;5092285;28;20206;-66
2021/12/08 01:29:47;;;;;;;5.32;2.33;;;1.20;99.90;;;;;;5092053;28;20222;-66
2021/12/08 01:32:14;;;;;;;3.38;2.20;;;1.20;99.90;;;;;;5091924;28;20206;-66
2021/12/08 01:34:41;;;;;;;2.50;2.30;;;1.20;99.90;;;;;;5091611;28;20220;-65
2021/12/08 01:37:08;;;;;;;5.25;2.60;;;1.20;99.90;;;;;;5092166;28;20566;-66
2021/12/08 01:39:36;;;;;;;3.95;2.42;;;1.10;99.90;;;;;;5092090;28;20289;-65
2021/12/08 01:42:05;;;;;;;5.63;2.67;;;1.10;99.90;;;;;;5091452;28;20207;-66
2021/12/08 01:47:16;;;;;;;5.40;2.40;;;1.10;99.90;;;;;;5091950;28;20729;-66
2021/12/08 01:49:42;;;;;;;7.53;2.67;;;1.00;99.90;;;;;;5091791;28;20203;-66
2021/12/08 01:52:09;;;;;;;3.28;2.20;;;1.00;99.90;;;;;;5091145;28;20208;-66
2021/12/08 01:54:37;;;;;;;4.07;2.83;;;1.00;99.90;;;;;;5091645;28;20223;-66
2021/12/08 01:57:06;;;;;;;3.10;2.10;;;1.10;99.90;;;;;;5091872;28;20652;-66
2021/12/08 01:59:34;;;;;;;3.65;3.00;;;1.10;99.90;;;;;;5091579;28;20227;-65
2021/12/08 02:02:00;;;;;;;4.03;2.60;;;1.10;99.90;;;;;;5091181;28;20200;-66
2021/12/08 02:04:27;;;;;;;3.15;2.72;;;1.10;99.90;;;;;;5091088;28;20212;-66
2021/12/08 02:06:55;;;;;;;4.05;2.33;;;1.20;99.90;;;;;;5091652;28;20203;-66
2021/12/08 02:09:21;;;;;;;3.00;2.30;;;1.10;99.90;;;;;;5091555;28;20195;-66
2021/12/08 02:11:53;;;;;;;7.57;2.55;;;1.10;99.90;;;;;;5090733;28;20222;-66
2021/12/08 02:14:20;;;;;;;4.88;2.92;;;1.10;99.90;;;;;;5091409;28;20269;-66
2021/12/08 02:16:47;;;;;;;2.97;2.58;;;1.10;99.90;;;;;;5090961;28;20211;-66
2021/12/08 02:19:14;;;;;;;5.75;2.15;;;1.20;99.90;;;;;;5091430;28;20204;-65
2021/12/08 02:21:44;;;;;;;4.25;2.50;;;1.10;99.90;;;;;;5090544;28;20223;-66
2021/12/08 02:24:13;;;;;;;3.65;2.58;;;1.00;99.90;;;;;;5091341;28;20216;-66
2021/12/08 02:26:42;;;;;;;4.25;2.67;;;1.00;99.90;;;;;;5091175;28;20677;-65
2021/12/08 02:29:13;;;;;;;4.25;2.53;;;1.00;99.90;;;;;;5090895;28;20206;-65
2021/12/08 02:31:47;;;;;;;2.85;2.60;;;1.10;99.90;;;;;;5090749;28;20199;-66
2021/12/08 02:48:00;;;;;;;2.55;1.98;;;1.20;99.90;;;;;;5069755;28;20184;-66
2021/12/08 02:50:30;;;;;;;7.38;2.35;;;1.30;99.90;;;;;;5091065;28;20195;-66
2021/12/08 02:52:59;;;;;;;2.55;2.33;;;1.30;99.90;;;;;;5090400;28;20200;-66
2021/12/08 02:55:28;;;;;;;2.72;2.40;;;1.30;99.90;;;;;;5090901;28;20216;-66
2021/12/08 02:57:55;;;;;;;2.80;2.60;;;1.30;99.90;;;;;;5090530;28;20203;-66
2021/12/08 03:00:26;;;;;;;5.25;2.95;;;1.30;99.90;;;;;;5091051;28;20200;-66
2021/12/08 03:02:56;;;;;;;6.00;2.53;;;1.30;99.90;;;;;;5090169;28;20692;-66
2021/12/08 03:05:23;;;;;;;3.15;2.85;;;1.30;99.90;;;;;;5090694;28;20192;-66
2021/12/08 03:07:50;;;;;;;4.25;2.50;;;1.30;99.90;;;;;;5090683;28;20567;-66
2021/12/08 03:10:25;;;;;;;3.63;2.50;;;1.30;99.90;;;;;;5090426;28;20196;-65
2021/12/08 03:12:52;;;;;;;5.60;3.00;;;1.20;99.90;;;;;;5090372;28;20203;-66
2021/12/08 03:15:20;;;;;;;2.63;2.42;;;1.10;99.90;;;;;;5090215;28;20226;-66
2021/12/08 03:17:47;;;;;;;4.55;2.40;;;1.10;99.90;;;;;;5090406;28;20211;-66
2021/12/08 03:20:20;;;;;;;2.47;2.10;;;1.20;99.90;;;;;;5090716;28;20195;-66
2021/12/08 03:22:48;;;;;;;3.78;2.58;;;1.20;99.90;;;;;;5089474;28;20689;-66
2021/12/08 03:25:20;;;;;;;4.00;2.30;;;1.20;99.90;;;;;;5090708;28;20256;-66
2021/12/08 03:27:48;;;;;;;5.32;2.75;;;1.20;99.90;;;;;;5090249;28;20206;-66
2021/12/08 03:30:20;;;;;;;5.32;2.55;;;1.30;99.90;;;;;;5090620;28;20203;-66
2021/12/08 03:32:47;;;;;;;2.80;2.45;;;1.30;99.90;;;;;;5089716;28;20215;-65
2021/12/08 03:35:17;;;;;;;7.18;2.85;;;1.30;99.90;;;;;;5090383;28;20223;-66
2021/12/08 03:37:47;;;;;;;3.75;2.42;;;1.30;99.90;;;;;;5090342;28;20204;-66
2021/12/08 03:40:19;;;;;;;4.07;2.53;;;1.40;99.90;;;;;;5090217;28;20210;-66
2021/12/08 03:42:47;;;;;;;3.55;2.70;;;1.50;99.90;;;;;;5089483;28;20204;-66
2021/12/08 03:45:18;;;;;;;3.22;2.80;;;1.50;99.90;;;;;;5092423;28;20206;-66
2021/12/08 03:47:47;;;;;;;5.78;2.97;;;1.40;99.90;;;;;;5094147;28;20568;-66
2021/12/08 03:50:16;;;;;;;5.18;3.25;;;1.40;99.90;;;;;;5094664;28;20215;-66
2021/12/08 03:52:43;;;;;;;4.70;3.33;;;1.50;99.90;;;;;;5093289;28;20206;-66
2021/12/08 03:55:14;;;;;;;5.47;2.90;;;1.50;99.90;;;;;;5094204;28;20717;-66
2021/12/08 03:57:42;;;;;;;4.03;2.70;;;1.50;99.90;;;;;;5093708;28;20207;-66
2021/12/08 04:00:12;;;;;;;4.18;2.90;;;1.50;99.90;;;;;;5094741;28;20705;-66
2021/12/08 04:02:38;;;;;;;3.03;2.72;;;1.50;99.90;;;;;;5093975;28;20206;-65
2021/12/08 04:05:06;;;;;;;3.83;2.95;;;1.50;99.90;;;;;;5093699;28;20219;-66
2021/12/08 04:07:36;;;;;;;5.18;3.20;;;1.40;99.90;;;;;;5094044;28;20678;-66
2021/12/08 04:10:03;;;;;;;4.22;2.75;;;1.40;99.90;;;;;;5093930;28;20303;-66
2021/12/08 04:12:30;;;;;;;5.00;3.15;;;1.40;99.90;;;;;;5093440;28;20204;-66
2021/12/08 04:15:02;;;;;;;3.45;3.00;;;1.30;99.90;;;;;;5093770;28;20216;-66
2021/12/08 04:17:31;;;;;;;6.35;3.20;;;1.20;99.90;;;;;;5093750;28;20200;-66
2021/12/08 04:20:01;;;;;;;8.40;3.17;;;1.30;99.90;;;;;;5094337;28;20567;-66
2021/12/08 04:22:31;;;;;;;4.38;3.40;;;1.30;99.90;;;;;;5092874;28;20207;-66
2021/12/08 04:24:59;;;;;;;5.70;3.42;;;1.40;99.90;;;;;;5093844;28;20216;-66
2021/12/08 04:27:28;;;;;;;5.38;3.75;;;1.40;99.90;;;;;;5093615;28;20211;-66
2021/12/08 04:29:55;;;;;;;5.90;3.42;;;1.50;99.90;;;;;;5093557;28;20570;-67
2021/12/08 04:32:26;;;;;;;5.57;3.33;;;1.60;99.90;;;;;;5093537;28;20203;-67
2021/12/08 04:34:57;;;;;;;4.65;3.55;;;1.60;99.90;;;;;;5092218;28;20216;-66
2021/12/08 04:37:31;;;;;;;4.20;3.25;;;1.60;99.90;;;;;;5089862;28;20196;-66
2021/12/08 04:40:11;;;;;;;4.65;3.65;;;1.60;99.90;;;;;;5091968;28;20195;-66
2021/12/08 04:42:52;;;;;;;4.20;3.30;;;1.70;99.90;;;;;;5091710;28;20192;-66
2021/12/08 04:45:27;;;;;;;3.85;3.15;;;1.70;99.90;;;;;;5092589;28;20188;-66
2021/12/08 04:48:12;;;;;;;5.43;3.72;;;1.70;99.90;;;;;;5092187;28;20202;-66
2021/12/08 04:51:16;;;;;;;5.15;3.60;;;1.80;99.90;;;;;;5092372;28;20554;-66
2021/12/08 04:54:04;;;;;;;5.43;3.60;;;1.80;99.90;;;;;;5089675;28;20591;-65
2021/12/08 05:02:19;;;;;;;5.80;3.90;;;1.90;99.90;;;;;;5092211;28;20259;-65
2021/12/08 05:05:03;;;;;;;4.15;3.75;;;2.00;99.90;;;;;;5090445;28;20763;-66
2021/12/08 05:07:46;;;;;;;5.20;3.55;;;2.00;99.90;;;;;;5091046;28;20575;-66
2021/12/08 05:10:16;;;;;;;4.80;3.67;;;2.00;99.90;;;;;;5088877;28;20192;-65
2021/12/08 05:12:45;;;;;;;7.25;4.07;;;2.10;99.90;;;;;;5089114;28;20196;-65
2021/12/08 05:15:17;;;;;;;4.13;3.15;;;2.10;99.90;;;;;;5092200;28;20666;-66
2021/12/08 05:17:47;;;;;;;4.35;3.95;;;2.20;99.90;;;;;;5092516;28;20196;-65
2021/12/08 05:20:22;;;;;;;6.00;4.20;;;2.20;99.90;;;;;;5092470;28;20203;-65
2021/12/08 05:22:55;;;;;;;4.60;3.83;;;2.20;99.90;;;;;;5089943;28;20278;-65
2021/12/08 05:25:25;;;;;;;8.23;4.93;;;2.30;99.90;;;;;;5089946;28;20210;-66
2021/12/08 05:27:54;;;;;;;6.35;3.65;;;2.30;99.90;;;;;;5091432;28;20192;-66
2021/12/08 05:30:25;;;;;;;4.97;4.07;;;2.30;99.90;;;;;;5091751;28;20291;-66
2021/12/08 05:32:52;;;;;;;4.60;3.90;;;2.40;99.90;;;;;;5151008;22;20208;-66
2021/12/08 05:35:21;;;;;;;5.82;4.35;;;2.40;99.90;;;;;;5036741;28;20201;-65
2021/12/08 05:37:49;;;;;;;4.93;4.00;;;2.50;99.90;;;;;;5031715;28;20607;-65
2021/12/08 05:40:20;;;;;;;5.15;4.13;;;2.60;99.90;;;;;;5031798;28;20205;-65
2021/12/08 05:42:47;;;;;;;5.78;4.40;;;2.60;99.90;;;;;;5030912;28;20201;-65
2021/12/08 05:45:17;;;;;;;9.60;4.55;;;2.60;99.90;;;;;;5031322;28;20557;-66
2021/12/08 05:47:46;;;;;;;5.22;4.20;;;2.60;99.90;;;;;;5031569;28;20197;-66
2021/12/08 05:50:17;;;;;;;5.55;4.40;;;2.60;99.90;;;;;;5031605;28;20208;-66
2021/12/08 05:52:45;;;;;;;6.03;4.82;;;2.60;99.90;;;;;;5030732;28;20212;-66
2021/12/08 05:55:12;;;;;;;7.78;5.13;;;2.70;99.90;;;;;;5031460;28;20206;-65
2021/12/08 05:57:43;;;;;;;5.57;4.43;;;2.70;99.90;;;;;;5031495;28;20216;-65
2021/12/08 06:00:13;;;;;;;4.97;4.35;;;2.70;99.90;;;;;;5031349;28;20692;-65
2021/12/08 06:02:40;;;;;;;6.10;4.45;;;2.80;99.90;;;;;;5030651;28;20209;-66
2021/12/08 06:05:10;;;;;;;5.15;4.28;;;2.80;99.90;;;;;;5030995;28;20253;-65
2021/12/08 06:07:37;;;;;;;7.40;4.40;;;2.80;99.90;;;;;;5030644;28;20193;-64
2021/12/08 06:10:10;;;;;;;8.35;4.72;;;2.80;99.90;;;;;;5031299;28;20272;-65
2021/12/08 06:12:37;;;;;;;5.53;4.32;;;2.80;99.90;;;;;;5030752;28;20618;-65
2021/12/08 06:15:05;;;;;;;5.53;3.88;;;2.80;99.90;;;;;;5038138;28;20287;-65
2021/12/08 06:17:32;;;;;;;5.07;4.57;;;2.80;99.90;;;;;;5049804;28;20217;-66
2021/12/08 06:20:00;;;;;;;5.68;4.47;;;2.90;99.90;;;;;;5050300;28;20208;-66
2021/12/08 06:22:28;;;;;;;6.68;4.85;;;2.90;99.90;;;;;;5050310;28;20208;-65
2021/12/08 06:24:54;;;;;;;7.72;5.60;;;2.90;99.90;;;;;;5042341;28;20276;-65
2021/12/08 06:27:23;;;;;;;4.80;4.30;;;2.90;99.90;;;;;;5038644;28;20206;-66
2021/12/08 06:29:50;;;;;;;5.90;4.65;;;2.90;99.90;;;;;;5046931;28;20197;-66
2021/12/08 06:32:18;;;;;;;5.60;4.32;;;2.90;99.90;;;;;;5040114;28;20655;-65
2021/12/08 06:34:48;;;;;;;4.90;3.80;;;3.00;99.90;;;;;;5050589;28;20652;-66
2021/12/08 06:37:19;;;;;;;5.05;4.25;;;3.00;99.90;;;;;;5047116;28;20213;-65
2021/12/08 06:39:50;;;;;;;6.13;4.53;;;3.00;99.90;;;;;;5049661;28;20248;-66
2021/12/08 06:42:27;;;;;;;5.75;4.40;;;3.00;99.90;;;;;;5030006;28;20590;-65
2021/12/08 06:44:56;;;;;;;6.28;4.80;;;3.00;99.90;;;;;;5030301;28;20228;-66
2021/12/08 06:47:28;;;;;;;7.32;4.97;;;3.00;99.90;;;;;;5030834;28;20331;-66
2021/12/08 06:50:04;;;;;;;7.18;5.57;;;3.00;99.90;;;;;;5029644;28;20228;-66
2021/12/08 06:52:36;;;;;;;7.35;5.07;;;3.00;99.90;;;;;;5030403;28;20197;-66
2021/12/08 06:55:09;;;;;;;6.20;4.90;;;3.00;99.90;;;;;;5030170;28;20232;-66
2021/12/08 06:57:39;;;;;;;6.28;5.68;;;3.00;99.90;;;;;;5030762;28;20221;-65
2021/12/08 07:00:19;;;;;;;5.60;4.95;;;3.00;99.90;;;;;;5030040;28;20210;-66
2021/12/08 07:02:59;;;;;;;5.30;4.80;;;2.90;99.90;;;;;;5030114;28;20623;-66
2021/12/08 07:05:31;;;;;;;6.05;5.00;;;3.00;99.90;;;;;;5030284;28;20209;-66
2021/12/08 07:08:01;;;;;;;6.97;5.82;;;3.00;99.90;;;;;;5030124;28;20229;-66
2021/12/08 07:10:37;;;;;;;6.18;4.97;;;3.00;99.90;;;;;;5030136;28;20208;-66
2021/12/08 07:13:09;;;;;;;6.85;5.10;;;2.90;99.90;;;;;;5029869;28;20205;-66
2021/12/08 07:15:45;;;;;;;7.85;4.93;;;2.90;99.90;;;;;;5030471;28;20202;-65
2021/12/08 07:18:17;;;;;;;6.32;5.13;;;3.00;99.90;;;;;;5029966;28;20577;-65
2021/12/08 07:20:48;;;;;;;8.15;5.00;;;3.00;99.90;;;;;;5033431;28;20209;-66
2021/12/08 07:23:19;;;;;;;5.63;4.72;;;3.00;99.90;;;;;;5034027;28;20228;-65
2021/12/08 07:25:47;;;;;;;6.15;4.57;;;3.00;99.90;;;;;;5034415;28;20201;-65
2021/12/08 07:28:18;;;;;;;5.45;4.68;;;3.00;99.90;;;;;;5033959;28;20201;-65
2021/12/08 07:30:50;;;;;;;5.32;4.43;;;3.00;99.90;;;;;;5034244;28;20209;-66
2021/12/08 07:33:17;;;;;;;5.55;4.70;;;3.00;99.90;;;;;;5033702;28;20233;-66
2021/12/08 07:35:47;;;;;;;5.00;4.10;;;3.10;99.90;;;;;;5026142;28;20380;-66
2021/12/08 07:38:20;;;;;;;5.00;4.50;;;3.10;99.90;;;;;;5050096;28;20205;-66
2021/12/08 07:40:52;;;;;;;5.63;4.97;;;3.10;99.90;;;;;;5052503;28;20291;-65
2021/12/08 07:43:24;;;;;;;6.82;4.95;;;3.10;99.90;;;;;;5053233;28;20634;-66
2021/12/08 07:46:02;;;;;;;4.25;3.85;;;3.20;99.90;;;;;;5052593;28;20204;-66
2021/12/08 07:48:34;;;;;;;5.18;4.32;;;3.20;99.90;;;;;;5053140;28;20200;-66
2021/12/08 07:51:07;;;;;;;5.43;4.88;;;3.20;99.90;;;;;;5051859;28;20607;-65
2021/12/08 07:53:35;;;;;;;6.25;4.60;;;3.20;99.90;;;;;;5053231;28;20652;-66
2021/12/08 07:56:07;;;;;;;5.20;4.70;;;3.20;99.90;;;;;;5052549;28;20201;-66
2021/12/08 07:58:36;;;;;;;6.03;4.35;;;3.20;99.90;;;;;;5051966;28;20578;-66
2021/12/08 08:01:09;;;;;;;6.60;4.32;;;3.10;99.90;;;;;;5052281;28;20201;-66
2021/12/08 08:03:37;;;;;;;4.90;4.40;;;3.20;99.90;;;;;;5052479;28;20243;-66
2021/12/08 08:06:07;;;;;;;6.07;4.57;;;3.10;99.90;;;;;;5052144;28;20201;-66
2021/12/08 08:08:35;;;;;;;5.70;4.68;;;3.10;99.90;;;;;;5052786;28;20205;-66
2021/12/08 08:11:06;;;;;;;6.53;4.05;;;3.10;99.90;;;;;;5051441;28;20676;-65
2021/12/08 08:13:33;;;;;;;5.20;4.43;;;3.10;99.90;;;;;;5052461;28;20217;-64
2021/12/08 08:16:05;;;;;;;6.70;4.45;;;3.10;99.90;;;;;;5052129;28;20201;-65
2021/12/08 08:18:35;;;;;;;4.10;3.80;;;3.10;99.90;;;;;;5052756;28;20675;-65
2021/12/08 08:21:10;;;;;;;4.47;4.07;;;3.10;99.90;;;;;;5051288;28;20201;-65
2021/12/08 08:23:37;;;;;;;5.13;4.50;;;3.20;99.90;;;;;;5052501;28;20629;-65
2021/12/08 08:26:08;;;;;;;4.20;3.80;;;3.20;99.90;;;;;;5051770;28;20201;-65
2021/12/08 08:28:35;;;;;;;4.75;3.75;;;3.20;99.90;;;;;;5051871;28;20579;-64
2021/12/08 08:31:07;;;;;;;3.88;3.40;;;3.20;99.90;;;;;;5051400;28;20278;-65
2021/12/08 08:33:37;;;;;;;3.95;3.65;;;3.30;99.90;;;;;;5048156;28;20385;-65
2021/12/08 08:36:07;;;;;;;5.20;3.85;;;3.30;99.90;;;;;;5051882;28;20201;-66
2021/12/08 08:38:37;;;;;;;4.55;3.97;;;3.30;99.90;;;;;;5052595;28;20208;-65
2021/12/08 08:41:08;;;;;;;6.35;4.13;;;3.30;99.90;;;;;;5051082;28;20212;-65
2021/12/08 08:43:35;;;;;;;5.50;4.45;;;3.30;99.90;;;;;;5052319;28;20227;-65
2021/12/08 08:46:08;;;;;;;4.60;3.80;;;3.30;99.90;;;;;;5051767;28;20205;-66
2021/12/08 08:48:39;;;;;;;6.55;4.35;;;3.40;99.90;;;;;;5052286;28;20215;-66
2021/12/08 08:51:09;;;;;;;4.25;3.85;;;3.30;99.90;;;;;;5050898;28;20471;-65
2021/12/08 08:53:39;;;;;;;5.45;4.45;;;3.30;99.90;;;;;;5026968;28;20275;-65
2021/12/08 08:56:10;;;;;;;5.07;4.25;;;3.30;99.90;;;;;;5031925;28;20201;-65
2021/12/08 08:58:45;;;;;;;5.05;4.55;;;3.30;99.90;;;;;;5031827;28;20201;-65
2021/12/08 09:01:15;;;;;;;4.70;4.20;;;3.40;99.90;;;;;;5031460;28;20205;-66
2021/12/08 09:03:47;;;;;;;5.18;4.40;;;3.40;99.90;;;;;;5031713;28;20226;-66
2021/12/08 09:06:19;;;;;;;5.50;4.40;;;3.30;99.90;;;;;;5031890;28;20217;-66
2021/12/08 09:08:47;;;;;;;5.75;4.15;;;3.30;99.90;;;;;;5031373;28;20206;-66
2021/12/08 09:11:18;;;;;;;4.82;3.80;;;3.20;99.90;;;;;;5031305;28;20209;-67
2021/12/08 09:13:49;;;;;;;4.85;4.38;;;3.20;99.90;;;;;;5032082;28;20592;-65
2021/12/08 09:16:19;;;;;;;3.90;3.50;;;3.20;99.90;;;;;;5048220;28;20197;-66
2021/12/08 09:18:58;;;;;;;4.68;4.28;;;3.20;99.90;;;;;;5051385;28;20197;-65
2021/12/08 09:21:29;;;;;;;4.47;4.07;;;3.30;99.90;;;;;;5050346;28;20251;-66
2021/12/08 09:24:02;;;;;;;3.65;3.35;;;3.30;99.90;;;;;;5046852;28;20225;-66
2021/12/08 09:26:30;;;;;;;4.00;3.42;;;3.30;99.90;;;;;;5031774;28;20198;-66
2021/12/08 09:29:00;;;;;;;4.05;3.65;;;3.30;99.90;;;;;;5030457;28;20664;-66
2021/12/08 09:31:30;;;;;;;4.32;3.67;;;3.30;99.90;;;;;;5031089;28;20576;-66
2021/12/08 09:34:03;;;;;;;4.43;3.88;;;3.30;99.90;;;;;;5030731;28;20240;-66
2021/12/08 09:36:34;;;;;;;3.90;3.60;;;3.30;99.90;;;;;;5030210;28;20700;-66
2021/12/08 09:39:06;;;;;;;4.10;3.65;;;3.30;99.90;;;;;;5029426;28;20208;-65
2021/12/08 09:41:38;;;;;;;4.90;4.40;;;3.40;99.90;;;;;;5030360;28;20243;-66
2021/12/08 09:44:08;;;;;;;5.20;4.00;;;3.40;99.90;;;;;;5030005;28;20342;-65
2021/12/08 09:46:38;;;;;;;4.70;3.80;;;3.40;99.90;;;;;;5031273;28;20213;-66
2021/12/08 09:49:08;;;;;;;4.05;3.55;;;3.50;99.90;;;;;;5030816;28;20216;-66
2021/12/08 09:51:37;;;;;;;4.07;3.70;;;3.50;99.90;;;;;;5029800;28;20692;-66
2021/12/08 09:54:04;;;;;;;4.22;3.83;;;3.50;99.90;;;;;;5030692;28;20218;-65
2021/12/08 09:56:33;;;;;;;3.88;3.40;;;3.50;99.90;;;;;;5030404;28;20209;-66
2021/12/08 09:59:03;;;;;;;4.47;3.78;;;3.60;99.90;;;;;;5029663;28;20679;-66
2021/12/08 10:01:31;;;;;;;4.63;4.22;;;3.60;99.90;;;;;;5030032;28;20262;-66
2021/12/08 10:03:59;;;;;;;5.45;4.28;;;3.60;99.90;;;;;;5030491;28;20226;-66
2021/12/08 10:06:28;;;;;;;7.72;3.80;;;3.60;99.90;;;;;;5030348;28;20216;-66
2021/12/08 10:08:57;;;;;;;3.85;3.55;;;3.60;99.90;;;;;;5029917;28;20608;-66
2021/12/08 10:11:25;;;;;;;5.20;3.65;;;3.70;99.90;;;;;;5030186;28;20217;-66
2021/12/08 10:13:52;;;;;;;3.50;3.20;;;3.70;99.90;;;;;;5029562;28;20233;-66
2021/12/08 10:16:19;;;;;;;4.20;3.80;;;3.70;99.90;;;;;;5030594;28;20198;-66
2021/12/08 10:18:47;;;;;;;3.25;3.00;;;3.70;99.90;;;;;;5029489;28;20232;-66
2021/12/08 10:21:15;;;;;;;3.45;2.92;;;3.60;99.90;;;;;;5029268;28;20201;-66
2021/12/08 10:23:44;;;;;;;4.10;3.60;;;3.70;99.90;;;;;;5030399;28;20604;-66
2021/12/08 10:26:13;;;;;;;3.70;3.35;;;3.70;99.90;;;;;;5029677;28;20208;-66
2021/12/08 10:28:42;;;;;;;4.65;4.15;;;3.70;99.90;;;;;;5029498;28;20247;-66
2021/12/08 10:31:14;;;;;;;3.35;3.05;;;3.70;99.90;;;;;;5029058;28;20304;-66
2021/12/08 10:34:02;;;;;;;4.20;3.80;;;3.70;99.90;;;;;;5029981;28;20225;-66
2021/12/08 10:36:44;;;;;;;3.90;3.47;;;3.60;99.90;;;;;;5029647;28;20209;-66
2021/12/08 10:39:19;;;;;;;4.55;3.65;;;3.70;99.90;;;;;;5029594;28;20201;-66
2021/12/08 10:41:57;;;;;;;4.05;3.65;;;3.70;99.90;;;;;;5029244;28;20216;-66
2021/12/08 10:44:26;;;;;;;5.38;4.00;;;3.80;99.90;;;;;;5029740;28;20221;-66
2021/12/08 10:46:57;;;;;;;6.68;5.20;;;3.80;99.90;;;;;;5029652;28;20194;-65
2021/12/08 10:54:23;;;;;;;5.68;4.40;;;3.90;99.90;;;;;;5029843;28;20252;-66
2021/12/08 10:55:01;;;;;;;4.28;3.88;;;4.00;99.90;;;;;;5028941;28;20220;-66
2021/12/08 10:57:31;;;;;;;4.32;3.55;;;4.00;99.90;;;;;;5029243;28;20222;-66
2021/12/08 11:00:05;;;;;;;3.67;3.20;;;4.10;99.90;;;;;;5029072;28;20609;-66
2021/12/08 11:02:53;;;;;;;4.32;3.55;;;4.20;99.90;;;;;;5034928;28;20293;-67
2021/12/08 11:05:49;;;;;;;4.18;3.78;;;4.40;99.90;;;;;;5044515;28;20212;-66
2021/12/08 11:08:22;;;;;;;9.90;6.25;;;4.50;99.90;;;;;;5036645;28;20639;-66
2021/12/08 11:10:54;;;;;;;5.60;4.30;;;4.50;99.90;;;;;;5040980;28;20205;-66
2021/12/08 11:13:24;;;;;;;3.90;3.50;;;4.60;99.90;;;;;;5029645;28;20264;-65
2021/12/08 11:16:00;;;;;;;6.47;4.07;;;4.70;99.90;;;;;;5029783;28;20201;-66
2021/12/08 11:18:30;;;;;;;9.63;6.28;;;4.70;99.90;;;;;;5029425;28;20638;-65
2021/12/08 11:20:59;;;;;;;7.82;4.45;;;4.80;99.90;;;;;;5029130;28;20205;-66
2021/12/08 11:23:40;;;;;;;7.53;4.50;;;4.80;99.90;;;;;;5030056;28;20232;-66
2021/12/08 11:26:15;;;;;;;3.85;3.30;;;4.80;99.90;;;;;;5029762;28;20806;-65
2021/12/08 11:28:43;;;;;;;4.13;3.15;;;4.90;99.90;;;;;;5029230;28;20552;-65
2021/12/08 11:31:12;;;;;;;4.22;3.78;;;4.90;99.90;;;;;;5029022;28;20399;-66
2021/12/08 11:33:42;;;;;;;4.65;3.85;;;4.90;99.90;;;;;;5029356;28;20230;-66
2021/12/08 11:36:15;;;;;;;5.90;4.25;;;4.90;99.90;;;;;;5028956;28;20244;-66
2021/12/08 11:38:44;;;;;;;4.80;3.75;;;4.90;99.90;;;;;;5029461;28;20717;-66
2021/12/08 11:41:34;;;;;;;3.60;3.30;;;4.90;99.90;;;;;;5028541;28;20685;-66
2021/12/08 11:44:03;;;;;;;4.20;3.65;;;5.00;99.90;;;;;;5029882;28;20762;-66
2021/12/08 11:46:34;;;;;;;3.90;3.50;;;5.10;99.90;;;;;;5063569;22;20232;-68
2021/12/08 11:49:05;;;;;;;3.35;2.70;;;5.10;99.90;;;;;;5049202;28;20199;-67
2021/12/08 11:51:37;;;;;;;3.35;3.05;;;5.00;99.90;;;;;;5045923;28;20237;-68
2021/12/08 11:54:04;;;;;;;3.95;3.35;;;5.00;99.90;;;;;;5046920;28;20228;-68
2021/12/08 11:56:39;;;;;;;5.53;3.80;;;5.00;99.90;;;;;;5044591;28;20201;-68
2021/12/08 11:59:09;;;;;;;3.47;3.17;;;5.00;99.90;;;;;;5046801;28;20224;-68
2021/12/08 12:01:37;;;;;;;4.43;3.70;;;4.90;99.90;;;;;;5048754;28;20581;-68
2021/12/08 12:04:06;;;;;;;4.32;3.75;;;4.80;99.90;;;;;;5048831;28;20290;-68
2021/12/08 12:06:34;;;;;;;3.75;3.40;;;4.80;99.90;;;;;;5051085;28;20197;-68
2021/12/08 12:09:01;;;;;;;4.03;3.50;;;4.80;99.90;;;;;;5052622;28;20197;-69
2021/12/08 12:11:29;;;;;;;4.00;3.70;;;4.80;99.90;;;;;;5052619;28;20205;-68
2021/12/08 12:13:59;;;;;;;3.60;3.30;;;4.80;99.90;;;;;;5053143;28;20224;-67
2021/12/08 12:16:26;;;;;;;4.10;3.25;;;4.80;99.90;;;;;;5052513;28;20208;-68
2021/12/08 12:18:56;;;;;;;3.92;3.63;;;4.70;99.90;;;;;;5052360;28;20220;-68
2021/12/08 12:21:33;;;;;;;3.88;3.58;;;4.80;99.90;;;;;;5051846;28;20216;-68
2021/12/08 12:24:12;;;;;;;3.90;3.53;;;4.70;99.90;;;;;;5052452;28;20227;-68
2021/12/08 12:26:53;;;;;;;4.00;3.60;;;4.70;99.90;;;;;;5052819;28;20615;-68
2021/12/08 12:29:36;;;;;;;4.25;3.85;;;4.70;99.90;;;;;;5052055;28;20265;-68
2021/12/08 12:32:08;;;;;;;4.22;3.65;;;4.70;99.90;;;;;;5051659;28;20212;-68
2021/12/08 12:34:37;;;;;;;4.90;4.40;;;4.70;99.90;;;;;;5051521;28;20990;-66
2021/12/08 12:37:06;;;;;;;4.47;4.07;;;4.70;99.90;;;;;;5042206;28;20194;-68
2021/12/08 12:39:33;;;;;;;4.10;3.70;;;4.80;99.90;;;;;;5031705;28;20214;-69
2021/12/08 12:42:11;;;;;;;3.90;3.50;;;4.80;99.90;;;;;;5031337;28;20217;-68
2021/12/08 12:44:41;;;;;;;4.07;3.50;;;4.80;99.90;;;;;;5043106;28;20640;-68
2021/12/08 12:47:19;;;;;;;4.35;3.95;;;4.80;99.90;;;;;;5048635;28;20201;-69
2021/12/08 12:50:21;;;;;;;4.65;4.20;;;4.80;99.90;;;;;;5056401;28;20199;-68
2021/12/08 12:52:54;;;;;;;6.95;5.10;;;4.80;99.90;;;;;;5032243;28;20213;-68
2021/12/08 12:55:24;;;;;;;7.03;4.95;;;4.80;99.90;;;;;;5041270;28;20258;-69
2021/12/08 12:58:10;;;;;;;5.88;5.05;;;4.70;99.90;;;;;;5051877;28;20639;-69
2021/12/08 13:00:40;;;;;;;5.72;5.15;;;4.80;99.90;;;;;;5051908;28;20682;-68
2021/12/08 13:03:08;;;;;;;5.53;5.03;;;4.80;99.90;;;;;;5051223;28;20220;-68
2021/12/08 13:05:50;;;;;;;6.72;4.95;;;4.80;99.90;;;;;;5052240;28;20576;-68
2021/12/08 13:08:29;;;;;;;5.65;5.00;;;4.80;99.90;;;;;;5047995;28;20208;-67
2021/12/08 13:10:58;;;;;;;5.72;5.13;;;4.80;99.90;;;;;;5049496;28;20229;-69
2021/12/08 13:13:25;;;;;;;6.30;5.05;;;4.80;99.90;;;;;;5051603;28;20830;-69
2021/12/08 13:15:53;;;;;;;6.63;4.35;;;4.80;99.90;;;;;;5051600;28;20208;-68
2021/12/08 13:18:23;;;;;;;6.53;5.90;;;4.80;99.90;;;;;;5050192;28;20229;-68
2021/12/08 13:20:55;;;;;;;6.90;4.85;;;4.80;99.90;;;;;;5051377;28;20197;-68
2021/12/08 13:23:27;;;;;;;7.38;6.07;;;4.80;99.90;;;;;;5052076;28;20244;-69
2021/12/08 13:25:58;;;;;;;8.05;6.82;;;4.80;99.90;;;;;;5051751;28;20422;-67
2021/12/08 13:28:47;;;;;;;8.80;6.78;;;4.80;99.90;;;;;;5048168;28;20205;-68
2021/12/08 13:31:24;;;;;;;7.32;6.05;;;4.80;99.90;;;;;;5050370;28;20208;-68
2021/12/08 13:33:58;;;;;;;7.07;5.90;;;4.80;99.90;;;;;;5061043;28;20309;-68
2021/12/08 13:36:34;;;;;;;5.70;5.03;;;4.80;99.90;;;;;;5066552;28;20204;-69
2021/12/08 13:39:22;;;;;;;7.90;5.70;;;4.80;99.90;;;;;;5070950;28;20216;-68
2021/12/08 13:42:01;;;;;;;6.43;5.75;;;4.80;99.90;;;;;;5071113;28;20245;-68